Sunday, October 21, 2018, 11:07 PM CDT
Back to Local

KDPA, Chicago/west Ch Dupage

Location: West Chicago, IL, United States Lat: 41.9
Local Time: 11:07 PM CDT ( 4:07 GMT) Lon: -88.25
Time Zone: US/Central Elev: 757 ft

Show me the last for .
Show Decoded

2018-10-21 22:52 METAR KDPA 220352Z 20004KT 10SM CLR 04/M03 A3010 RMK AO2 SLP197 T00391028 =
2018-10-21 21:52 METAR KDPA 220252Z 19004KT 10SM CLR 03/M03 A3011 RMK AO2 SLP201 T00331033 53003
                 =
2018-10-21 20:52 METAR KDPA 220152Z 22007KT 10SM CLR 06/M03 A3011 RMK AO2 SLP201 T00561033 =
2018-10-21 19:52 METAR KDPA 220052Z 19007KT 10SM CLR 07/M04 A3008 RMK AO2 SLP194 T00671039 =
2018-10-21 18:52 METAR KDPA 212352Z 19007KT 10SM CLR 06/M04 A3010 RMK AO2 SLP199 T00611044 10100
                 20061 56018 =
2018-10-21 17:52 METAR KDPA 212252Z 20007KT 10SM CLR 08/M06 A3011 RMK AO2 SLP202 T00831056 =
2018-10-21 16:52 METAR KDPA 212152Z 19016G23KT 10SM CLR 09/M06 A3011 RMK AO2 SLP204 T00941056 =
2018-10-21 15:52 METAR KDPA 212052Z 21016G20KT 10SM CLR 10/M05 A3015 RMK AO2 SLP217 T01001050
                 56043 =
2018-10-21 14:52 METAR KDPA 211952Z 22011G19KT 10SM CLR 09/M04 A3019 RMK AO2 SLP229 T00941044 =
2018-10-21 13:52 METAR KDPA 211852Z 23015G21KT 10SM CLR 08/M05 A3023 RMK AO2 SLP243 T00831050 =
2018-10-21 12:52 METAR KDPA 211752Z 24011G19KT 10SM CLR 07/M05 A3028 RMK AO2 SLP262 T00721050
                 10072 21050 58024 =
2018-10-21 11:52 METAR KDPA 211652Z 25009KT 10SM CLR 06/M05 A3032 RMK AO2 SLP276 T00611050 =
2018-10-21 10:52 METAR KDPA 211552Z 22010KT 10SM CLR 04/M06 A3034 RMK AO2 SLP281 T00441056 =
2018-10-21 09:52 METAR KDPA 211452Z 22007KT 10SM CLR 03/M04 A3035 RMK AO2 SLP286 T00281044 58000
                 =
2018-10-21 08:52 METAR KDPA 211352Z 00000KT 10SM CLR M01/M04 A3036 RMK AO2 SLP289 T10061039 =
2018-10-21 07:52 METAR KDPA 211252Z 00000KT 10SM CLR M04/M06 A3036 RMK AO2 SLP289 T10391056 =
2018-10-21 06:52 METAR KDPA 211152Z 00000KT 10SM CLR M04/M07 A3035 RMK AO2 SLP288 T10391067 11022
                 21044 56000 =
2018-10-21 05:52 METAR KDPA 211052Z 00000KT 10SM CLR M03/M07 A3036 RMK AO2 SLP290 T10281067 =
2018-10-21 04:52 METAR KDPA 210952Z 00000KT 10SM CLR M04/M07 A3035 RMK AO2 SLP285 T10441072 =
2018-10-21 03:52 METAR KDPA 210852Z 30005KT 10SM CLR M03/M07 A3036 RMK AO2 SLP288 T10331067 53009
                 =
2018-10-21 02:52 METAR KDPA 210752Z 29006KT 10SM CLR M03/M07 A3034 RMK AO2 SLP283 T10281067 =
2018-10-21 01:52 METAR KDPA 210652Z 28005KT 10SM CLR M03/M07 A3034 RMK AO2 SLP282 T10281067 =
2018-10-21 00:52 METAR KDPA 210552Z 29004KT 10SM CLR M03/M07 A3033 RMK AO2 SLP278 T10281067 10028
                 21033 401061033 51009 =
2018-10-20 23:52 METAR KDPA 210452Z 29004KT 10SM CLR M02/M07 A3033 RMK AO2 SLP276 T10171067 =

Support USWX by starting your Amazon purchase here.